createdAt,value
2022-10-12T00:02:25.012Z,11.00
2022-10-12T00:06:26.198Z,10.90
2022-10-12T00:10:27.274Z,11.00
2022-10-12T00:14:28.427Z,11.00
2022-10-12T00:18:30.312Z,11.00
2022-10-12T00:22:31.609Z,10.90
2022-10-12T00:26:33.282Z,10.90
2022-10-12T00:30:34.680Z,11.00
2022-10-12T00:34:35.900Z,10.90
2022-10-12T00:38:37.096Z,10.80
2022-10-12T00:42:38.827Z,10.70
2022-10-12T00:46:44.137Z,10.60
2022-10-12T00:50:45.707Z,10.50
2022-10-12T00:54:49.151Z,10.50
2022-10-12T00:58:51.337Z,10.40
2022-10-12T01:02:54.335Z,10.40
2022-10-12T01:06:55.439Z,10.40
2022-10-12T01:10:56.820Z,10.40
2022-10-12T01:14:58.096Z,10.30
2022-10-12T01:19:22.294Z,10.40
2022-10-12T01:23:39.226Z,10.40
2022-10-12T01:27:50.375Z,10.40
2022-10-12T01:31:58.394Z,10.40
2022-10-12T01:36:18.616Z,10.40
2022-10-12T01:40:26.184Z,10.40
2022-10-12T01:44:29.295Z,10.20
2022-10-12T01:48:30.508Z,10.10
2022-10-12T01:52:38.157Z,10.10
2022-10-12T01:56:43.180Z,10.10
2022-10-12T02:00:54.493Z,10.00
2022-10-12T02:05:08.825Z,10.00
2022-10-12T02:09:19.429Z,9.90
2022-10-12T02:13:23.615Z,10.00
2022-10-12T02:17:25.810Z,10.00
2022-10-12T02:21:30.595Z,10.00
2022-10-12T02:25:34.083Z,10.10
2022-10-12T02:29:41.063Z,10.10
2022-10-12T02:33:46.153Z,10.10
2022-10-12T02:37:54.177Z,10.00
2022-10-12T02:41:59.209Z,10.00
2022-10-12T02:46:01.524Z,9.80
2022-10-12T02:50:04.298Z,9.80
2022-10-12T02:54:05.406Z,9.70
2022-10-12T02:58:06.621Z,9.70
2022-10-12T03:02:09.503Z,9.80
2022-10-12T03:06:10.993Z,9.80
2022-10-12T03:10:12.085Z,9.70
2022-10-12T03:14:16.954Z,9.60
2022-10-12T03:18:18.361Z,9.60
2022-10-12T03:22:19.538Z,9.60
2022-10-12T03:26:20.822Z,9.60
2022-10-12T03:30:22.010Z,9.60
2022-10-12T03:34:23.343Z,9.60
2022-10-12T03:38:24.521Z,9.60
2022-10-12T03:42:25.653Z,9.50
2022-10-12T03:46:26.848Z,9.50
2022-10-12T03:50:28.247Z,9.50
2022-10-12T03:54:30.042Z,9.60
2022-10-12T03:58:31.276Z,9.60
2022-10-12T04:02:32.447Z,9.60
2022-10-12T04:06:33.562Z,9.70
2022-10-12T04:10:34.754Z,9.60
2022-10-12T04:14:35.958Z,9.40
2022-10-12T04:18:37.340Z,9.30
2022-10-12T04:22:39.035Z,9.30
2022-10-12T04:26:40.121Z,9.30
2022-10-12T04:30:41.246Z,9.30
2022-10-12T04:34:42.455Z,9.20
2022-10-12T04:38:43.670Z,9.10
2022-10-12T04:42:44.837Z,9.00
2022-10-12T04:46:45.951Z,9.00
2022-10-12T04:50:47.203Z,9.00
2022-10-12T04:54:48.393Z,9.00
2022-10-12T04:58:49.665Z,9.10
2022-10-12T05:02:50.754Z,8.90
2022-10-12T05:06:51.941Z,8.90
2022-10-12T05:10:53.124Z,8.80
2022-10-12T05:14:54.301Z,8.90
2022-10-12T05:18:55.478Z,8.80
2022-10-12T05:22:57.665Z,9.00
2022-10-12T05:26:58.777Z,9.00
2022-10-12T05:30:59.906Z,9.00
2022-10-12T05:35:01.114Z,9.00
2022-10-12T05:39:02.748Z,8.80
2022-10-12T05:43:03.938Z,8.70
2022-10-12T05:47:05.139Z,8.70
2022-10-12T05:51:06.338Z,8.80
2022-10-12T05:55:08.276Z,9.00
2022-10-12T05:59:10.851Z,9.00
2022-10-12T06:03:14.094Z,8.90
2022-10-12T06:07:14.944Z,8.90
2022-10-12T06:11:16.238Z,8.80
2022-10-12T06:15:17.520Z,9.10
2022-10-12T06:19:18.619Z,9.20
2022-10-12T06:23:20.706Z,9.50
2022-10-12T06:27:21.850Z,9.50
2022-10-12T06:31:23.037Z,9.60
2022-10-12T06:35:24.366Z,9.70
2022-10-12T06:39:25.566Z,9.80
2022-10-12T06:43:27.459Z,9.90
2022-10-12T06:47:28.665Z,10.00
2022-10-12T06:51:29.758Z,10.10
2022-10-12T06:55:31.155Z,10.00
2022-10-12T06:59:32.453Z,10.20
2022-10-12T07:03:34.157Z,10.30
2022-10-12T07:07:36.560Z,10.40
2022-10-12T07:11:37.761Z,10.60
2022-10-12T07:15:38.943Z,10.70
2022-10-12T07:19:40.155Z,10.90
2022-10-12T07:23:45.737Z,11.20
2022-10-12T07:27:49.461Z,11.50
2022-10-12T07:31:52.047Z,11.90
2022-10-12T07:36:12.715Z,12.30
2022-10-12T07:39:57.872Z,12.30
2022-10-12T07:43:59.069Z,12.70
2022-10-12T07:48:00.167Z,12.80
2022-10-12T07:52:01.354Z,13.20
2022-10-12T07:56:04.923Z,13.90
2022-10-12T08:00:07.459Z,14.10
2022-10-12T08:04:09.662Z,14.20
2022-10-12T08:08:10.845Z,14.60
2022-10-12T08:12:12.048Z,15.20
2022-10-12T08:16:17.033Z,15.50
2022-10-12T08:20:18.140Z,15.50
2022-10-12T08:24:19.505Z,15.70
2022-10-12T08:28:20.784Z,15.50
2022-10-12T08:32:22.149Z,15.50
2022-10-12T08:36:23.537Z,15.70
2022-10-12T08:40:32.721Z,15.60
2022-10-12T08:44:46.635Z,15.60
2022-10-12T08:49:06.635Z,16.10
2022-10-12T08:53:22.118Z,16.30
2022-10-12T08:57:23.314Z,16.60
2022-10-12T09:01:36.702Z,17.20
2022-10-12T09:05:41.721Z,17.40
2022-10-12T09:09:52.927Z,17.50
2022-10-12T09:14:03.718Z,17.70
2022-10-12T09:18:08.606Z,17.80
2022-10-12T09:22:13.655Z,17.70
2022-10-12T09:26:21.684Z,17.50
2022-10-12T09:30:22.899Z,17.80
2022-10-12T09:34:24.288Z,18.10
2022-10-12T09:38:25.578Z,18.30
2022-10-12T09:42:26.985Z,18.30
2022-10-12T09:46:37.581Z,18.40
2022-10-12T09:50:57.461Z,18.50
2022-10-12T09:55:03.569Z,18.40
2022-10-12T09:59:07.246Z,19.10
2022-10-12T10:03:12.267Z,18.50
2022-10-12T10:07:29.827Z,19.00
2022-10-12T10:11:31.934Z,19.30
2022-10-12T10:15:38.132Z,19.00
2022-10-12T10:19:39.430Z,18.60
2022-10-12T10:23:59.364Z,18.90
2022-10-12T10:28:22.661Z,18.80
2022-10-12T10:32:28.307Z,18.90
2022-10-12T10:36:30.809Z,20.00
2022-10-12T10:40:33.021Z,20.20
2022-10-12T10:44:35.715Z,20.70
2022-10-12T10:48:50.821Z,20.90
2022-10-12T10:52:58.254Z,21.30
2022-10-12T10:57:06.323Z,21.40
2022-10-12T11:01:16.993Z,21.50
2022-10-12T11:05:30.601Z,21.50
2022-10-12T11:09:41.724Z,21.70
2022-10-12T11:14:05.134Z,21.90
2022-10-12T11:18:12.672Z,21.90
2022-10-12T11:22:24.091Z,21.20
2022-10-12T11:26:41.393Z,21.00
2022-10-12T11:30:50.845Z,21.30
2022-10-12T11:34:55.458Z,21.80
2022-10-12T11:39:07.128Z,22.10
2022-10-12T11:43:10.605Z,22.80
2022-10-12T11:47:34.565Z,22.80
2022-10-12T11:51:36.082Z,22.10
2022-10-12T11:55:56.670Z,21.40
2022-10-12T12:00:01.761Z,21.70
2022-10-12T12:04:42.694Z,22.00
2022-10-12T12:08:45.071Z,21.70
2022-10-12T12:13:18.371Z,22.00
2022-10-12T12:17:28.115Z,22.10
2022-10-12T12:21:27.530Z,21.80
2022-10-12T12:25:32.146Z,22.10
2022-10-12T12:29:33.508Z,22.40
2022-10-12T12:33:39.739Z,22.90
2022-10-12T12:37:40.894Z,22.70
2022-10-12T12:42:00.541Z,22.60
2022-10-12T12:46:07.676Z,21.50
2022-10-12T12:50:28.450Z,21.60
2022-10-12T12:54:30.920Z,21.70
2022-10-12T12:58:41.038Z,21.90
2022-10-12T13:02:55.635Z,21.50
2022-10-12T13:07:04.289Z,21.60
2022-10-12T13:11:26.185Z,21.70
2022-10-12T13:15:49.742Z,21.60
2022-10-12T13:19:54.000Z,21.40
2022-10-12T13:23:58.997Z,21.10
2022-10-12T13:28:03.606Z,21.20
2022-10-12T13:32:08.533Z,21.30
2022-10-12T13:36:22.760Z,21.40
2022-10-12T13:40:30.230Z,21.30
2022-10-12T13:44:35.050Z,21.10
2022-10-12T13:52:39.177Z,20.60
2022-10-12T13:56:40.567Z,20.70
2022-10-12T14:00:45.777Z,20.50
2022-10-12T14:04:46.925Z,20.60
2022-10-12T14:08:48.479Z,20.60
2022-10-12T14:12:52.337Z,20.80
2022-10-12T14:16:53.919Z,20.80
2022-10-12T14:21:08.267Z,20.90
2022-10-12T14:25:12.950Z,20.80
2022-10-12T14:29:38.299Z,20.70
2022-10-12T14:33:41.130Z,20.70
2022-10-12T14:37:42.797Z,20.90
2022-10-12T14:41:50.300Z,20.50
2022-10-12T14:45:51.974Z,20.60
2022-10-12T14:49:56.433Z,20.60
2022-10-12T14:54:02.102Z,20.70
2022-10-12T14:58:05.147Z,20.70
2022-10-12T15:02:21.393Z,20.80
2022-10-12T15:06:22.500Z,20.90
2022-10-12T15:10:24.800Z,20.80
2022-10-12T15:14:26.099Z,20.70
2022-10-12T15:18:27.624Z,20.50
2022-10-12T15:22:28.715Z,20.50
2022-10-12T15:26:29.943Z,20.40
2022-10-12T15:30:32.364Z,20.40
2022-10-12T15:34:33.549Z,20.30
2022-10-12T15:38:35.644Z,20.10
2022-10-12T15:42:37.829Z,20.00
2022-10-12T15:46:39.920Z,19.80
2022-10-12T15:50:49.234Z,19.70
2022-10-12T15:54:50.384Z,19.70
2022-10-12T15:58:51.497Z,19.40
2022-10-12T16:02:54.197Z,19.50
2022-10-12T16:06:55.385Z,19.30
2022-10-12T16:10:56.495Z,19.30
2022-10-12T16:14:57.711Z,19.10
2022-10-12T16:18:58.882Z,19.00
2022-10-12T16:23:00.978Z,18.90
2022-10-12T16:27:02.141Z,18.90
2022-10-12T16:31:09.870Z,18.90
2022-10-12T16:35:12.061Z,18.90
2022-10-12T16:39:13.158Z,18.80
2022-10-12T16:43:14.422Z,18.70
2022-10-12T16:47:15.814Z,18.50
2022-10-12T16:51:16.885Z,18.30
2022-10-12T16:55:19.271Z,18.10
2022-10-12T16:59:20.427Z,18.10
2022-10-12T17:03:23.537Z,18.10
2022-10-12T17:07:25.457Z,18.00
2022-10-12T17:11:26.569Z,17.80
2022-10-12T17:15:27.824Z,17.70
2022-10-12T17:19:31.770Z,17.50
2022-10-12T17:23:33.048Z,17.30
2022-10-12T17:27:34.137Z,17.30
2022-10-12T17:31:35.313Z,17.20
2022-10-12T17:35:38.919Z,17.10
2022-10-12T17:39:43.054Z,17.00
2022-10-12T17:43:44.233Z,16.90
2022-10-12T17:47:47.730Z,16.80
2022-10-12T17:51:50.124Z,16.80
2022-10-12T17:55:53.566Z,16.60
2022-10-12T17:59:54.287Z,16.60
2022-10-12T18:04:00.873Z,16.50
2022-10-12T18:08:02.159Z,16.50
2022-10-12T18:12:03.354Z,16.40
2022-10-12T18:16:10.051Z,16.40
2022-10-12T18:20:11.607Z,16.30
2022-10-12T18:24:17.038Z,16.30
2022-10-12T18:28:18.944Z,16.30
2022-10-12T18:32:20.917Z,16.00
2022-10-12T18:36:22.497Z,16.00
2022-10-12T18:40:23.579Z,15.90
2022-10-12T18:44:24.770Z,15.90
2022-10-12T18:48:25.865Z,15.90
2022-10-12T18:52:27.138Z,15.90
2022-10-12T18:56:29.743Z,15.70
2022-10-12T19:00:31.172Z,15.70
2022-10-12T19:04:34.004Z,15.70
2022-10-12T19:08:36.109Z,15.60
2022-10-12T19:12:38.642Z,15.60
2022-10-12T19:16:41.458Z,15.40
2022-10-12T19:20:42.558Z,15.30
2022-10-12T19:24:43.747Z,15.30
2022-10-12T19:28:45.887Z,15.30
2022-10-12T19:32:48.039Z,15.10
2022-10-12T19:36:49.866Z,15.00
2022-10-12T19:40:51.150Z,14.90
2022-10-12T19:44:52.339Z,14.80
2022-10-12T19:48:55.152Z,14.80
2022-10-12T19:52:56.416Z,14.70
2022-10-12T19:56:57.543Z,14.70
2022-10-12T20:01:07.853Z,14.60
2022-10-12T20:05:10.719Z,14.50
2022-10-12T20:09:11.885Z,14.40
2022-10-12T20:13:13.395Z,14.30
2022-10-12T20:17:14.587Z,14.30
2022-10-12T20:21:18.768Z,14.30
2022-10-12T20:25:19.951Z,14.20
2022-10-12T20:29:21.036Z,14.20
2022-10-12T20:33:22.133Z,14.10
2022-10-12T20:37:23.339Z,14.10
2022-10-12T20:41:25.666Z,14.10
2022-10-12T20:45:26.845Z,14.00
2022-10-12T20:49:28.025Z,13.90
2022-10-12T20:53:29.131Z,14.10
2022-10-12T20:57:30.424Z,13.90
2022-10-12T21:01:31.611Z,13.90
2022-10-12T21:05:36.133Z,13.80
2022-10-12T21:09:37.235Z,13.90
2022-10-12T21:13:40.334Z,13.90
2022-10-12T21:17:41.538Z,13.80
2022-10-12T21:21:43.210Z,13.70
2022-10-12T21:25:44.295Z,13.70
2022-10-12T21:29:45.474Z,13.60
2022-10-12T21:33:46.561Z,13.50
2022-10-12T21:37:47.658Z,13.60
2022-10-12T21:41:48.844Z,13.60
2022-10-12T21:45:50.020Z,13.70
2022-10-12T21:49:51.213Z,13.70
2022-10-12T21:53:52.697Z,13.70
2022-10-12T21:57:53.826Z,13.80
2022-10-12T22:01:54.995Z,13.80
2022-10-12T22:05:56.171Z,13.80
2022-10-12T22:09:57.370Z,13.60
2022-10-12T22:14:04.592Z,13.60
2022-10-12T22:18:05.755Z,13.70
2022-10-12T22:22:06.855Z,13.70
2022-10-12T22:26:11.726Z,13.60
2022-10-12T22:30:13.053Z,13.50
2022-10-12T22:34:14.238Z,13.50
2022-10-12T22:38:15.443Z,13.50
2022-10-12T22:42:16.839Z,13.50
2022-10-12T22:46:19.835Z,13.30
2022-10-12T22:50:21.025Z,13.20
2022-10-12T22:54:22.117Z,13.10
2022-10-12T22:58:23.290Z,13.00
2022-10-12T23:02:24.385Z,12.70
2022-10-12T23:06:25.569Z,12.60
2022-10-12T23:10:26.645Z,12.60
2022-10-12T23:14:27.734Z,12.50
2022-10-12T23:18:28.949Z,12.50
2022-10-12T23:22:30.736Z,12.50
2022-10-12T23:26:32.329Z,12.60
2022-10-12T23:30:33.455Z,12.60
2022-10-12T23:34:34.629Z,12.60
2022-10-12T23:38:37.411Z,12.60
2022-10-12T23:42:38.602Z,12.40
2022-10-12T23:46:39.780Z,12.30
2022-10-12T23:50:41.073Z,12.30
2022-10-12T23:54:42.261Z,12.30
2022-10-12T23:58:43.442Z,12.30
